Airport View

Enter AWOS ICAO identifier for current METAR.

ex. KFNL

KBHM 250953Z 35004KT 10SM OVC003 16/14 A2997 RMK AO2 SLP142 T01560144

25 Oct 2020 10:22

Phone: 205-591-6172

Other Area AWOS: KEKY - KEET - KPLR - KSCD

TAF KBHM 250520Z 2506/2606 33004KT 4SM -DZ BR OVC002 FM251600 VRB03KT P6SM OVC008 FM251700 VRB03KT P6SM OVC011 FM251900 VRB03KT P6SM OVC020 FM260100 VRB02KT P6SM OVC018